Time;durP1;ratioP1;P1;durP2;ratioP2;P2;SDS_P1;SDS_P2;PMS_P1;PMS_P2;Temp;Humidity;BMP_temperature;BMP_pressure;BME280_temperature;BME280_humidity;BME280_pressure;Samples;Min_cycle;Max_cycle;Signal;HPM_P1;HPM_P2
2022/01/28 00:00:14;;;;;;;2.08;1.02;;;23.10;50.50;;;;;;5063257;28;20202;-49
2022/01/28 00:02:59;;;;;;;3.13;1.00;;;23.10;50.50;;;;;;5062061;28;20206;-52
2022/01/28 00:05:30;;;;;;;2.35;1.00;;;23.20;50.50;;;;;;5062905;28;20264;-53
2022/01/28 00:08:00;;;;;;;4.00;1.30;;;23.20;50.50;;;;;;5064074;28;20214;-54
2022/01/28 00:10:32;;;;;;;2.47;1.30;;;23.20;50.40;;;;;;5064529;28;20236;-54
2022/01/28 00:13:18;;;;;;;1.52;1.00;;;23.20;50.40;;;;;;5062794;28;20198;-55
2022/01/28 00:38:06;;;;;;;1.83;1.08;;;23.40;50.00;;;;;;5061725;28;20733;-50
2022/01/28 00:40:37;;;;;;;3.08;1.02;;;23.40;49.90;;;;;;5060279;28;20194;-53
2022/01/28 00:43:08;;;;;;;2.80;1.10;;;23.50;50.00;;;;;;5062240;28;20195;-46
2022/01/28 00:45:39;;;;;;;1.75;1.05;;;23.50;50.00;;;;;;5063653;28;20315;-47
2022/01/28 00:48:09;;;;;;;2.78;0.88;;;23.50;49.80;;;;;;5065081;28;20288;-50
2022/01/28 00:50:42;;;;;;;1.90;0.75;;;23.50;49.80;;;;;;5066555;28;20196;-53
2022/01/28 00:53:13;;;;;;;2.30;0.90;;;23.60;49.80;;;;;;5068040;28;20264;-46
2022/01/28 00:55:44;;;;;;;2.80;0.93;;;23.60;49.60;;;;;;5068820;28;21565;-47
2022/01/28 00:58:14;;;;;;;2.35;0.90;;;23.60;49.50;;;;;;5066670;28;20203;-50
2022/01/28 01:00:45;;;;;;;2.55;1.00;;;23.70;49.60;;;;;;5067632;28;20199;-50
2022/01/28 01:03:16;;;;;;;2.47;1.10;;;23.70;49.50;;;;;;5067347;28;20203;-50
2022/01/28 01:05:48;;;;;;;3.22;1.25;;;23.70;49.40;;;;;;5066199;28;20256;-46
2022/01/28 01:08:19;;;;;;;2.45;1.20;;;23.70;49.30;;;;;;5067483;28;20223;-50
2022/01/28 01:10:50;;;;;;;4.35;1.10;;;23.70;49.20;;;;;;5067686;28;20194;-51
2022/01/28 01:13:21;;;;;;;2.25;1.02;;;23.70;49.20;;;;;;5067236;28;20199;-54
2022/01/28 01:15:56;;;;;;;3.38;1.10;;;23.70;49.10;;;;;;5067448;28;20229;-54
2022/01/28 01:18:33;;;;;;;2.22;1.00;;;23.70;49.10;;;;;;5067165;28;20191;-48
2022/01/28 01:21:09;;;;;;;1.70;0.77;;;23.80;49.10;;;;;;5068235;28;20190;-53
2022/01/28 01:23:48;;;;;;;1.88;0.80;;;23.80;49.10;;;;;;5064619;28;20222;-46
2022/01/28 01:26:18;;;;;;;2.08;0.88;;;23.80;49.00;;;;;;5065159;28;20222;-55
2022/01/28 01:28:49;;;;;;;1.90;1.10;;;23.80;48.90;;;;;;5063273;28;20214;-50
2022/01/28 01:31:19;;;;;;;3.03;0.77;;;23.80;48.90;;;;;;5062812;28;20198;-52
2022/01/28 01:33:56;;;;;;;1.80;0.95;;;23.90;48.90;;;;;;5063999;28;20210;-56
2022/01/28 01:36:28;;;;;;;2.08;1.00;;;23.90;48.90;;;;;;5066341;28;20215;-56
2022/01/28 01:38:59;;;;;;;1.83;0.70;;;23.90;48.80;;;;;;5065785;28;20369;-49
2022/01/28 01:41:34;;;;;;;2.67;1.08;;;23.90;48.80;;;;;;5068613;28;20200;-45
2022/01/28 01:44:08;;;;;;;3.15;1.00;;;24.00;48.80;;;;;;5068099;28;20316;-49
2022/01/28 01:46:58;;;;;;;3.05;0.82;;;24.00;48.70;;;;;;5066921;28;20219;-53
2022/01/28 01:52:17;;;;;;;4.35;1.15;;;24.00;48.60;;;;;;5066511;28;20222;-48
2022/01/28 01:54:50;;;;;;;1.88;0.65;;;24.00;48.40;;;;;;5065239;28;21079;-51
2022/01/28 01:57:21;;;;;;;2.28;1.13;;;24.00;48.40;;;;;;5066439;28;20229;-51
2022/01/28 01:59:51;;;;;;;1.67;0.80;;;24.10;48.50;;;;;;5066286;28;20203;-41
2022/01/28 02:02:22;;;;;;;2.88;0.90;;;24.10;48.50;;;;;;5065249;28;20195;-55
2022/01/28 02:04:52;;;;;;;1.95;1.20;;;24.10;48.40;;;;;;5063839;28;20715;-47
2022/01/28 02:07:25;;;;;;;3.03;0.90;;;24.10;48.40;;;;;;5064790;28;20207;-48
2022/01/28 02:09:56;;;;;;;3.05;1.08;;;24.10;48.30;;;;;;5065603;28;20287;-47
2022/01/28 02:12:27;;;;;;;4.20;1.13;;;24.10;48.90;;;;;;5067896;28;20244;-53
2022/01/28 02:14:57;;;;;;;2.00;0.98;;;24.20;48.30;;;;;;5063330;28;20211;-47
2022/01/28 02:17:28;;;;;;;2.75;0.90;;;24.20;48.60;;;;;;5064199;28;20199;-48
2022/01/28 02:19:58;;;;;;;2.00;0.90;;;24.20;48.30;;;;;;5065091;28;20199;-41
2022/01/28 02:22:31;;;;;;;2.28;0.85;;;24.20;48.30;;;;;;5062698;28;20256;-54
2022/01/28 02:25:01;;;;;;;2.83;1.23;;;24.20;48.30;;;;;;5065408;28;20223;-50
2022/01/28 02:27:32;;;;;;;3.30;0.90;;;24.20;48.30;;;;;;5063591;28;20256;-48
2022/01/28 02:30:05;;;;;;;3.33;1.08;;;24.20;48.20;;;;;;5065573;28;21758;-41
2022/01/28 02:32:37;;;;;;;3.00;1.30;;;24.30;48.20;;;;;;5063828;28;20190;-48
2022/01/28 02:35:08;;;;;;;3.80;0.93;;;24.30;48.10;;;;;;5063378;28;20218;-44
2022/01/28 02:37:41;;;;;;;2.55;1.10;;;24.30;48.00;;;;;;5058268;28;20202;-47
2022/01/28 02:40:12;;;;;;;2.53;1.02;;;24.30;47.90;;;;;;5066555;28;20202;-48
2022/01/28 02:42:54;;;;;;;1.95;0.93;;;24.30;47.80;;;;;;5062879;28;20191;-54
2022/01/28 02:45:32;;;;;;;2.42;1.10;;;24.40;47.90;;;;;;5061850;28;20222;-51
2022/01/28 02:48:07;;;;;;;3.63;1.08;;;24.40;47.90;;;;;;5066435;28;20208;-52
2022/01/28 02:50:43;;;;;;;4.20;1.20;;;24.40;47.80;;;;;;5060556;28;20225;-46
2022/01/28 02:53:22;;;;;;;2.00;0.73;;;24.40;47.80;;;;;;5062138;28;20250;-50
2022/01/28 02:55:59;;;;;;;2.80;1.00;;;24.40;47.70;;;;;;5066897;28;20301;-50
2022/01/28 02:58:29;;;;;;;2.45;1.10;;;24.50;47.90;;;;;;5062255;28;20267;-53
2022/01/28 03:01:01;;;;;;;2.05;1.08;;;24.50;47.90;;;;;;5060756;28;20208;-54
2022/01/28 03:03:32;;;;;;;3.30;1.10;;;24.50;47.90;;;;;;5066286;28;20191;-55
2022/01/28 03:06:02;;;;;;;2.30;0.80;;;24.50;47.90;;;;;;5058814;28;20268;-52
2022/01/28 03:08:35;;;;;;;3.00;1.10;;;24.50;47.80;;;;;;5063475;28;20221;-56
2022/01/28 03:14:13;;;;;;;4.97;1.10;;;24.60;47.80;;;;;;5043052;28;20206;-51
2022/01/28 03:16:56;;;;;;;2.85;1.20;;;24.60;47.80;;;;;;5059677;28;20321;-47
2022/01/28 03:19:29;;;;;;;1.75;1.10;;;24.60;47.70;;;;;;5066346;28;20311;-41
2022/01/28 03:22:04;;;;;;;3.78;1.20;;;24.60;47.60;;;;;;5062514;28;20267;-54
2022/01/28 03:24:36;;;;;;;4.72;1.25;;;24.70;47.70;;;;;;5060112;28;20202;-52
2022/01/28 03:27:12;;;;;;;3.45;1.20;;;24.70;47.60;;;;;;5066586;28;20203;-50
2022/01/28 03:29:43;;;;;;;4.38;1.60;;;24.70;47.60;;;;;;5063482;28;20723;-46
2022/01/28 03:32:13;;;;;;;3.85;1.23;;;24.70;47.60;;;;;;5060845;28;20191;-46
2022/01/28 03:34:44;;;;;;;4.15;1.23;;;24.70;47.60;;;;;;5065038;28;20240;-49
2022/01/28 03:37:15;;;;;;;2.90;1.10;;;24.70;47.50;;;;;;5061901;28;20206;-42
2022/01/28 03:39:48;;;;;;;3.33;1.15;;;24.70;47.50;;;;;;5061214;28;20603;-40
2022/01/28 03:42:18;;;;;;;3.38;1.10;;;24.80;47.40;;;;;;5065966;28;20194;-48
2022/01/28 03:44:49;;;;;;;3.17;1.05;;;24.80;47.50;;;;;;5058822;28;20268;-47
2022/01/28 03:47:19;;;;;;;2.95;1.30;;;24.80;47.50;;;;;;5062358;28;20226;-43
2022/01/28 03:49:50;;;;;;;4.85;1.15;;;24.80;47.50;;;;;;5065250;28;20238;-42
2022/01/28 03:52:20;;;;;;;3.53;1.20;;;24.90;47.50;;;;;;5059153;28;20670;-44
2022/01/28 03:54:53;;;;;;;3.83;1.10;;;24.90;47.50;;;;;;5065542;28;20250;-50
2022/01/28 03:57:23;;;;;;;2.58;1.00;;;24.90;47.50;;;;;;5062405;28;20199;-46
2022/01/28 03:59:54;;;;;;;2.90;1.10;;;24.90;47.40;;;;;;5059255;28;20269;-44
2022/01/28 04:02:28;;;;;;;3.17;0.98;;;25.00;47.50;;;;;;5064241;28;20253;-41
2022/01/28 04:05:52;;;;;;;4.40;1.20;;;25.00;47.40;;;;;;5062249;28;20713;-41
2022/01/28 04:13:33;;;;;;;3.72;1.25;;;25.10;47.30;;;;;;5066767;28;20206;-41
2022/01/28 04:16:27;;;;;;;3.33;1.10;;;25.10;47.30;;;;;;5056004;28;20222;-40
2022/01/28 04:19:01;;;;;;;4.22;1.10;;;25.10;47.30;;;;;;5063502;28;20213;-44
2022/01/28 04:21:32;;;;;;;2.80;1.00;;;25.10;47.30;;;;;;5067738;28;20194;-40
2022/01/28 04:24:02;;;;;;;2.85;0.95;;;25.20;47.30;;;;;;5064030;28;20223;-41
2022/01/28 04:26:34;;;;;;;2.75;1.02;;;25.20;47.30;;;;;;5066466;28;20246;-41
2022/01/28 04:29:06;;;;;;;3.42;1.30;;;25.20;47.30;;;;;;5068589;28;20218;-41
2022/01/28 04:31:41;;;;;;;2.00;0.73;;;25.20;47.20;;;;;;5064042;28;20199;-40
2022/01/28 04:34:11;;;;;;;2.08;1.00;;;25.20;47.40;;;;;;5067314;28;20197;-43
2022/01/28 04:36:50;;;;;;;3.00;1.00;;;25.30;47.40;;;;;;5068570;28;20930;-41
2022/01/28 04:39:26;;;;;;;2.88;0.88;;;25.20;47.40;;;;;;5060811;28;20297;-47
2022/01/28 04:42:07;;;;;;;4.03;1.20;;;25.30;47.40;;;;;;5067234;28;20686;-47
2022/01/28 04:44:46;;;;;;;2.42;1.23;;;25.30;47.20;;;;;;5065638;28;20198;-45
2022/01/28 04:47:23;;;;;;;3.55;1.27;;;25.30;47.30;;;;;;5064300;28;20191;-49
2022/01/28 04:50:04;;;;;;;2.95;1.30;;;25.30;47.40;;;;;;5066391;28;20210;-54
2022/01/28 04:55:31;;;;;;;2.55;1.17;;;25.40;47.50;;;;;;5041749;28;20215;-55
2022/01/28 04:58:16;;;;;;;4.47;1.42;;;25.40;47.40;;;;;;5065208;28;20235;-46
2022/01/28 05:00:57;;;;;;;4.68;1.60;;;25.50;47.50;;;;;;5069129;28;20191;-48
2022/01/28 05:03:44;;;;;;;6.47;1.60;;;25.50;47.70;;;;;;5064182;28;20193;-42
2022/01/28 05:06:46;;;;;;;3.97;1.35;;;25.50;47.80;;;;;;5063432;28;20277;-45
2022/01/28 05:26:26;;;;;;;3.33;1.48;;;25.50;47.60;;;;;;5036474;28;20222;-45
2022/01/28 05:28:56;;;;;;;3.95;1.40;;;25.60;47.60;;;;;;5060193;28;20227;-41
2022/01/28 05:31:29;;;;;;;3.40;1.40;;;25.50;47.40;;;;;;5065429;28;20715;-41
2022/01/28 05:34:00;;;;;;;2.55;1.23;;;25.60;47.40;;;;;;5059433;28;20284;-50
2022/01/28 05:36:30;;;;;;;3.33;1.42;;;25.60;47.40;;;;;;5061907;28;20776;-52
2022/01/28 05:39:01;;;;;;;2.13;1.08;;;25.60;47.40;;;;;;5063758;28;20886;-45
2022/01/28 05:41:32;;;;;;;3.90;1.30;;;25.60;47.30;;;;;;5058449;28;20214;-45
2022/01/28 05:44:03;;;;;;;3.42;1.40;;;25.60;47.30;;;;;;5061821;28;20586;-43
2022/01/28 05:46:35;;;;;;;3.03;1.20;;;25.60;47.20;;;;;;5061293;28;20831;-44
2022/01/28 05:49:06;;;;;;;2.63;1.40;;;25.60;47.20;;;;;;5059653;28;20276;-44
2022/01/28 05:51:37;;;;;;;4.35;1.42;;;25.60;47.10;;;;;;5063005;28;20248;-44
2022/01/28 05:54:07;;;;;;;4.97;1.58;;;25.60;47.00;;;;;;5060648;28;20871;-45
2022/01/28 05:56:38;;;;;;;4.25;1.55;;;25.60;47.00;;;;;;5060038;28;20223;-41
2022/01/28 05:59:09;;;;;;;2.85;1.38;;;25.60;47.00;;;;;;5063245;28;20195;-51
2022/01/28 06:01:41;;;;;;;3.75;1.40;;;25.60;47.00;;;;;;5060237;28;20252;-41
2022/01/28 06:04:12;;;;;;;2.47;1.20;;;25.60;47.00;;;;;;5059346;28;20233;-50
2022/01/28 06:06:42;;;;;;;3.88;1.48;;;25.60;47.00;;;;;;5062221;28;20763;-44
2022/01/28 06:09:13;;;;;;;2.67;1.20;;;25.60;47.00;;;;;;5056319;28;20230;-52
2022/01/28 06:11:46;;;;;;;3.58;1.73;;;25.60;47.00;;;;;;5062249;28;20252;-44
2022/01/28 06:14:16;;;;;;;1.85;1.15;;;25.60;47.10;;;;;;5064017;28;20199;-49
2022/01/28 06:16:49;;;;;;;5.30;1.40;;;25.60;47.10;;;;;;5056412;28;20231;-47
2022/01/28 06:19:19;;;;;;;4.85;1.55;;;25.60;46.90;;;;;;5057697;28;20655;-45
2022/01/28 06:21:50;;;;;;;2.58;0.90;;;25.60;46.90;;;;;;5050855;28;20206;-53
2022/01/28 06:24:21;;;;;;;5.80;1.55;;;25.60;46.90;;;;;;5051487;28;20209;-50
2022/01/28 06:26:51;;;;;;;3.75;1.20;;;25.60;46.90;;;;;;5052661;28;20227;-45
2022/01/28 06:29:22;;;;;;;2.80;1.10;;;25.60;46.90;;;;;;5063530;28;20215;-47
2022/01/28 06:31:54;;;;;;;4.90;1.40;;;25.60;46.90;;;;;;5050955;28;20253;-47
2022/01/28 06:34:25;;;;;;;4.30;1.40;;;25.60;47.00;;;;;;5034671;28;20195;-47
2022/01/28 06:36:57;;;;;;;2.13;1.33;;;25.60;47.00;;;;;;5056465;28;20252;-50
2022/01/28 06:39:27;;;;;;;3.75;1.55;;;25.60;46.90;;;;;;5055082;28;20202;-48
2022/01/28 06:41:58;;;;;;;5.13;1.70;;;25.60;47.00;;;;;;5049235;28;20191;-47
2022/01/28 06:44:29;;;;;;;3.08;1.40;;;25.60;47.00;;;;;;5052670;28;20195;-47
2022/01/28 06:47:01;;;;;;;4.15;1.55;;;25.60;47.00;;;;;;5036082;22;20269;-45
2022/01/28 06:49:32;;;;;;;5.13;1.58;;;25.50;47.00;;;;;;5009466;28;20806;-49
2022/01/28 06:52:03;;;;;;;3.25;1.63;;;25.50;47.00;;;;;;5005915;28;20201;-49
2022/01/28 06:54:33;;;;;;;5.10;1.67;;;25.50;47.00;;;;;;5008058;28;20209;-52
2022/01/28 06:57:04;;;;;;;5.38;1.60;;;25.50;47.10;;;;;;5009043;28;20864;-44
2022/01/28 06:59:34;;;;;;;4.75;1.55;;;25.50;47.10;;;;;;5008207;28;20212;-45
2022/01/28 07:02:07;;;;;;;5.68;1.70;;;25.50;47.10;;;;;;5009506;28;20197;-45
2022/01/28 07:04:38;;;;;;;4.45;1.45;;;25.50;47.10;;;;;;5006672;28;20389;-50
2022/01/28 07:07:09;;;;;;;4.97;1.63;;;25.50;47.20;;;;;;5008371;28;20546;-45
2022/01/28 07:09:39;;;;;;;3.55;1.65;;;25.50;47.20;;;;;;5008860;28;20283;-51
2022/01/28 07:12:11;;;;;;;5.40;1.63;;;25.50;47.20;;;;;;5007823;28;20197;-46
2022/01/28 07:14:41;;;;;;;2.80;1.23;;;25.50;47.20;;;;;;5007896;28;20192;-53
2022/01/28 07:17:14;;;;;;;6.10;1.55;;;25.50;47.30;;;;;;5007463;28;20201;-51
2022/01/28 07:19:44;;;;;;;6.00;1.52;;;25.50;47.30;;;;;;5007305;28;20200;-53
2022/01/28 07:22:15;;;;;;;4.65;1.60;;;25.50;47.30;;;;;;5009258;28;20189;-43
2022/01/28 07:24:46;;;;;;;4.75;1.60;;;25.50;47.40;;;;;;5008164;28;20294;-50
2022/01/28 07:27:19;;;;;;;4.53;1.60;;;25.40;47.30;;;;;;5009312;28;20661;-49
2022/01/28 07:29:50;;;;;;;3.58;1.40;;;25.40;47.40;;;;;;5007963;28;20221;-47
2022/01/28 07:32:24;;;;;;;3.47;1.35;;;25.40;47.40;;;;;;5003308;28;20277;-46
2022/01/28 07:34:55;;;;;;;4.07;1.52;;;25.40;47.50;;;;;;4995725;28;20224;-45
2022/01/28 07:37:25;;;;;;;4.00;1.40;;;25.40;47.50;;;;;;5007765;28;20189;-49
2022/01/28 07:39:56;;;;;;;3.47;1.40;;;25.30;47.50;;;;;;5008011;28;20276;-45
2022/01/28 07:42:26;;;;;;;3.95;1.58;;;25.30;47.60;;;;;;5009287;28;20300;-47
2022/01/28 07:44:59;;;;;;;1.95;1.15;;;25.30;47.60;;;;;;5008180;28;20271;-44
2022/01/28 07:47:31;;;;;;;3.72;1.50;;;25.30;47.70;;;;;;5007493;28;20209;-46
2022/01/28 07:50:02;;;;;;;3.47;1.33;;;25.30;47.70;;;;;;5008903;28;20216;-45
2022/01/28 07:52:32;;;;;;;3.28;1.23;;;25.20;47.70;;;;;;5006995;28;20201;-47
2022/01/28 07:55:03;;;;;;;4.18;1.60;;;25.20;47.80;;;;;;5007584;28;20266;-47
2022/01/28 07:57:34;;;;;;;3.15;1.63;;;25.20;47.80;;;;;;5008755;28;20192;-45
2022/01/28 08:00:08;;;;;;;2.60;1.20;;;25.20;47.80;;;;;;5006893;28;20296;-46
2022/01/28 08:02:42;;;;;;;2.72;1.30;;;25.20;47.90;;;;;;5008720;28;20205;-43
2022/01/28 08:05:13;;;;;;;3.15;1.17;;;25.20;47.90;;;;;;5010269;28;20710;-50
2022/01/28 08:07:44;;;;;;;3.47;1.50;;;25.20;47.90;;;;;;5007724;28;20252;-46
2022/01/28 08:10:16;;;;;;;2.92;1.40;;;25.10;47.90;;;;;;5008575;28;20274;-42
2022/01/28 08:12:51;;;;;;;4.35;1.20;;;25.20;48.00;;;;;;5005220;28;20201;-47
2022/01/28 08:15:22;;;;;;;4.35;1.52;;;25.10;47.90;;;;;;5002957;28;20228;-50
2022/01/28 08:17:55;;;;;;;3.38;1.30;;;25.10;48.00;;;;;;5006277;28;20189;-46
2022/01/28 08:20:26;;;;;;;3.83;1.20;;;25.10;48.00;;;;;;5003653;28;20267;-42
2022/01/28 08:22:58;;;;;;;6.53;1.63;;;25.10;48.10;;;;;;5005483;28;20201;-47
2022/01/28 08:25:30;;;;;;;3.13;1.42;;;25.00;48.00;;;;;;5005366;28;20315;-41
2022/01/28 08:28:01;;;;;;;4.43;1.55;;;25.00;48.10;;;;;;5005283;28;20243;-40
2022/01/28 08:30:32;;;;;;;3.03;1.17;;;25.00;48.10;;;;;;5005113;28;20236;-42
2022/01/28 08:33:05;;;;;;;4.20;1.35;;;24.90;48.10;;;;;;5005097;28;20218;-42
2022/01/28 08:35:38;;;;;;;3.28;1.20;;;24.90;48.10;;;;;;5006137;28;20311;-39
2022/01/28 08:38:16;;;;;;;3.80;1.35;;;24.90;48.20;;;;;;5006391;28;20231;-39
2022/01/28 08:40:46;;;;;;;3.22;1.13;;;24.90;48.20;;;;;;5002781;28;20193;-40
2022/01/28 08:43:17;;;;;;;2.65;1.40;;;24.90;48.20;;;;;;5004928;28;20216;-41
2022/01/28 08:45:48;;;;;;;2.80;1.27;;;24.80;48.30;;;;;;5005570;28;20307;-41
2022/01/28 08:48:20;;;;;;;2.22;1.08;;;24.80;48.30;;;;;;5003064;28;20661;-42
2022/01/28 08:50:51;;;;;;;2.20;0.82;;;24.80;48.40;;;;;;5005439;28;20264;-41
2022/01/28 08:53:21;;;;;;;2.65;1.20;;;24.70;48.30;;;;;;5004645;28;20193;-46
2022/01/28 08:55:52;;;;;;;3.17;1.52;;;24.70;48.40;;;;;;5005287;28;20312;-44
2022/01/28 08:58:23;;;;;;;2.55;0.95;;;24.70;48.40;;;;;;5004739;28;20205;-41
2022/01/28 09:00:54;;;;;;;2.72;1.20;;;24.70;48.40;;;;;;5004364;28;20201;-42
2022/01/28 09:03:27;;;;;;;3.38;1.35;;;24.70;48.40;;;;;;5005482;28;20665;-50
2022/01/28 09:05:57;;;;;;;2.80;1.23;;;24.60;48.40;;;;;;5006111;28;20224;-39
2022/01/28 09:08:28;;;;;;;1.23;0.80;;;24.60;48.40;;;;;;5007435;28;20200;-45
2022/01/28 09:11:08;;;;;;;2.88;1.10;;;24.50;48.40;;;;;;5009133;28;20770;-39
2022/01/28 09:13:42;;;;;;;2.85;1.23;;;24.60;48.50;;;;;;5007565;28;20251;-40
2022/01/28 09:16:12;;;;;;;2.47;1.27;;;24.50;48.40;;;;;;5006665;28;20220;-40
2022/01/28 09:18:45;;;;;;;2.67;1.02;;;24.50;48.50;;;;;;5009461;28;20200;-40
2022/01/28 09:21:15;;;;;;;2.67;1.20;;;24.50;48.50;;;;;;5007971;28;20197;-41
2022/01/28 09:23:46;;;;;;;1.60;1.00;;;24.40;48.50;;;;;;5008487;28;20256;-39
2022/01/28 09:26:17;;;;;;;2.65;0.80;;;24.40;48.60;;;;;;5008520;28;20213;-41
2022/01/28 09:28:48;;;;;;;2.85;1.15;;;24.40;48.60;;;;;;5008198;28;20242;-44
2022/01/28 09:31:18;;;;;;;2.20;1.15;;;24.40;48.70;;;;;;5007712;28;20251;-45
2022/01/28 09:33:51;;;;;;;2.55;1.08;;;24.30;48.70;;;;;;5007530;28;20263;-44
2022/01/28 09:36:21;;;;;;;2.25;0.98;;;24.30;48.70;;;;;;5007404;28;20224;-43
2022/01/28 09:38:52;;;;;;;2.97;1.20;;;24.30;48.70;;;;;;5008333;28;20207;-50
2022/01/28 09:41:23;;;;;;;1.95;1.10;;;24.30;48.70;;;;;;5006012;28;20205;-45
2022/01/28 09:43:54;;;;;;;3.20;1.20;;;24.20;48.70;;;;;;5008479;28;20197;-43
2022/01/28 09:46:25;;;;;;;2.30;1.30;;;24.20;48.70;;;;;;5028158;22;20227;-51
2022/01/28 09:48:58;;;;;;;3.97;1.30;;;24.20;48.70;;;;;;5042579;28;20265;-46
2022/01/28 09:51:29;;;;;;;2.53;1.20;;;24.20;48.80;;;;;;5046319;28;20227;-50
2022/01/28 09:54:00;;;;;;;1.95;1.02;;;24.20;48.80;;;;;;5044112;28;20199;-49
2022/01/28 09:56:32;;;;;;;2.10;0.90;;;24.10;48.80;;;;;;5036744;28;20211;-50
2022/01/28 09:59:03;;;;;;;2.63;1.25;;;24.10;48.80;;;;;;5042934;28;20195;-54
2022/01/28 10:01:34;;;;;;;1.75;0.90;;;24.10;48.90;;;;;;5033180;28;20250;-47
2022/01/28 10:04:09;;;;;;;2.40;1.17;;;24.00;48.90;;;;;;5041420;28;20209;-50
2022/01/28 10:06:39;;;;;;;1.70;1.00;;;24.00;48.90;;;;;;5037639;28;20222;-49
2022/01/28 10:09:11;;;;;;;1.50;0.93;;;24.00;48.90;;;;;;5034159;28;20203;-53
2022/01/28 10:11:44;;;;;;;2.08;1.17;;;24.00;49.00;;;;;;5040025;28;20231;-54
2022/01/28 10:14:17;;;;;;;1.60;1.00;;;24.00;49.00;;;;;;5035275;28;20202;-51
2022/01/28 10:16:58;;;;;;;2.90;1.00;;;24.00;49.00;;;;;;5035652;28;20220;-51
2022/01/28 10:19:40;;;;;;;2.35;0.80;;;23.90;48.90;;;;;;5042084;28;20196;-53
2022/01/28 10:22:21;;;;;;;2.35;1.00;;;23.90;48.90;;;;;;5032924;28;20257;-54
2022/01/28 10:24:52;;;;;;;1.73;1.00;;;23.90;48.90;;;;;;5035661;28;20224;-52
2022/01/28 10:27:23;;;;;;;1.77;0.88;;;23.90;48.90;;;;;;5038981;28;20241;-47
2022/01/28 10:29:54;;;;;;;1.90;0.90;;;23.80;48.90;;;;;;5030262;28;20211;-47
2022/01/28 10:32:28;;;;;;;2.05;1.00;;;23.80;49.00;;;;;;5038094;28;20255;-49
2022/01/28 10:35:00;;;;;;;1.50;1.00;;;23.80;49.00;;;;;;5040135;28;20574;-49
2022/01/28 10:37:32;;;;;;;1.48;0.88;;;23.80;49.00;;;;;;5033886;28;20203;-48
2022/01/28 10:40:05;;;;;;;2.38;1.23;;;23.80;49.10;;;;;;5040785;28;20246;-49
2022/01/28 10:42:41;;;;;;;2.10;1.08;;;23.70;49.00;;;;;;5032275;28;20208;-51
2022/01/28 10:45:14;;;;;;;2.80;1.13;;;23.70;49.10;;;;;;5020318;28;20278;-52
2022/01/28 10:47:47;;;;;;;1.70;1.00;;;23.70;49.10;;;;;;5044982;28;20322;-53
2022/01/28 10:50:25;;;;;;;1.98;1.10;;;23.60;49.10;;;;;;5023743;28;20783;-49
2022/01/28 10:53:05;;;;;;;1.23;0.85;;;23.60;49.10;;;;;;5025673;28;20259;-49
2022/01/28 10:55:37;;;;;;;2.53;1.00;;;23.60;49.20;;;;;;5012481;28;20209;-47
2022/01/28 10:58:10;;;;;;;1.52;0.80;;;23.50;49.10;;;;;;5019879;28;20200;-49
2022/01/28 11:00:42;;;;;;;2.20;1.00;;;23.50;49.20;;;;;;5027087;28;20250;-45
2022/01/28 11:03:14;;;;;;;1.27;0.75;;;23.50;49.20;;;;;;5025661;28;20196;-41
2022/01/28 11:05:47;;;;;;;1.33;0.90;;;23.50;49.80;;;;;;5022079;28;20219;-41
2022/01/28 11:08:18;;;;;;;1.38;0.80;;;23.50;49.20;;;;;;5011850;28;20192;-46
2022/01/28 11:10:48;;;;;;;2.50;0.82;;;23.40;49.20;;;;;;5019472;28;20225;-44
2022/01/28 11:13:20;;;;;;;1.48;0.68;;;23.40;49.80;;;;;;5019221;28;20659;-48
2022/01/28 11:15:51;;;;;;;1.52;0.73;;;23.40;49.20;;;;;;5018300;28;20260;-40
2022/01/28 11:18:22;;;;;;;1.13;0.65;;;23.40;49.20;;;;;;5017205;28;20203;-43
2022/01/28 11:20:57;;;;;;;1.35;0.85;;;23.40;49.30;;;;;;5020434;28;20201;-45
2022/01/28 11:23:40;;;;;;;1.42;0.75;;;23.30;49.30;;;;;;5020681;28;20245;-46
2022/01/28 11:26:22;;;;;;;2.15;0.93;;;23.30;49.30;;;;;;5017228;28;20710;-44
2022/01/28 11:28:55;;;;;;;1.45;0.90;;;23.30;49.40;;;;;;5019004;28;20231;-46
2022/01/28 11:31:44;;;;;;;0.93;0.73;;;23.20;49.40;;;;;;5019946;28;20231;-48
2022/01/28 11:34:19;;;;;;;1.58;0.80;;;23.20;49.40;;;;;;5020641;28;20315;-44
2022/01/28 11:36:52;;;;;;;1.40;0.80;;;23.20;49.40;;;;;;5018305;28;20311;-43
2022/01/28 11:39:29;;;;;;;1.52;1.00;;;23.20;50.10;;;;;;5018348;28;20204;-43
2022/01/28 11:42:05;;;;;;;1.95;0.80;;;23.10;49.50;;;;;;5018926;28;20254;-40
2022/01/28 11:44:54;;;;;;;1.23;0.80;;;23.10;49.50;;;;;;5020655;28;20601;-43
2022/01/28 11:47:27;;;;;;;2.20;0.98;;;23.00;49.40;;;;;;5022133;28;20271;-46
2022/01/28 11:50:06;;;;;;;1.27;0.80;;;23.00;49.40;;;;;;5018841;28;20197;-48
2022/01/28 11:52:41;;;;;;;0.98;0.70;;;23.00;49.40;;;;;;5024087;28;20224;-44
2022/01/28 11:55:36;;;;;;;1.88;0.80;;;23.00;49.40;;;;;;5019091;28;20259;-43
2022/01/28 11:58:08;;;;;;;1.00;0.70;;;23.00;49.40;;;;;;5019305;28;20451;-41
2022/01/28 12:00:40;;;;;;;0.98;0.70;;;23.00;49.40;;;;;;5021324;28;21846;-47
2022/01/28 12:03:20;;;;;;;1.10;0.77;;;23.00;49.50;;;;;;5019322;28;20200;-46
2022/01/28 12:05:59;;;;;;;1.30;0.70;;;22.90;49.50;;;;;;5019962;28;20251;-47
2022/01/28 12:08:36;;;;;;;1.50;0.75;;;22.90;49.50;;;;;;5012928;28;20204;-45
2022/01/28 12:11:09;;;;;;;1.83;0.80;;;22.90;49.60;;;;;;5016093;28;20716;-44
2022/01/28 12:14:01;;;;;;;1.58;0.90;;;22.80;49.50;;;;;;5015356;28;20674;-40
2022/01/28 12:16:33;;;;;;;0.88;0.70;;;22.80;49.70;;;;;;5022882;28;20289;-42
2022/01/28 12:19:16;;;;;;;2.83;1.02;;;22.80;49.60;;;;;;5017981;28;20291;-42
2022/01/28 12:22:07;;;;;;;2.25;1.00;;;22.80;49.70;;;;;;5019716;28;20225;-47
2022/01/28 12:24:40;;;;;;;2.10;0.98;;;22.70;49.60;;;;;;5025809;28;20200;-46
2022/01/28 12:27:13;;;;;;;1.42;0.88;;;22.70;49.60;;;;;;5018962;28;20216;-44
2022/01/28 12:29:47;;;;;;;1.30;0.63;;;22.70;49.70;;;;;;5019469;28;20632;-46
2022/01/28 12:32:24;;;;;;;2.22;1.00;;;22.60;49.70;;;;;;5020909;28;20215;-42
2022/01/28 12:34:55;;;;;;;2.10;1.00;;;22.60;49.70;;;;;;5017685;28;20311;-43
2022/01/28 12:37:28;;;;;;;1.08;0.70;;;22.60;49.60;;;;;;5013817;28;20193;-46
2022/01/28 12:40:05;;;;;;;1.30;0.80;;;22.60;49.60;;;;;;5023678;28;20196;-45
2022/01/28 12:42:42;;;;;;;0.77;0.70;;;22.60;49.70;;;;;;5024467;28;20927;-44
2022/01/28 12:45:13;;;;;;;1.75;1.15;;;22.50;49.70;;;;;;5014662;28;20227;-48
2022/01/28 12:47:44;;;;;;;2.28;0.90;;;22.50;49.70;;;;;;5018008;28;20205;-48
2022/01/28 12:50:16;;;;;;;1.42;0.70;;;22.50;49.70;;;;;;5033528;22;20691;-45
2022/01/28 12:52:49;;;;;;;1.73;0.85;;;22.50;49.80;;;;;;5031393;28;20278;-44
2022/01/28 12:55:22;;;;;;;1.10;0.80;;;22.50;49.80;;;;;;5027450;28;20262;-44
2022/01/28 12:57:52;;;;;;;0.80;0.60;;;22.40;49.80;;;;;;5028915;28;20718;-48
2022/01/28 13:00:23;;;;;;;0.93;0.68;;;22.40;49.80;;;;;;5016532;28;20189;-43
2022/01/28 13:02:55;;;;;;;1.13;0.82;;;22.40;49.80;;;;;;5022211;28;20262;-47
2022/01/28 13:05:36;;;;;;;1.10;0.80;;;22.40;49.80;;;;;;5027164;28;20216;-43
2022/01/28 13:10:55;;;;;;;0.90;0.70;;;22.30;49.80;;;;;;5027391;28;20749;-49
2022/01/28 13:13:26;;;;;;;1.60;0.90;;;22.30;49.90;;;;;;5030101;28;20216;-46
2022/01/28 13:15:57;;;;;;;1.52;0.90;;;22.30;49.80;;;;;;5029072;28;20224;-46
2022/01/28 13:18:28;;;;;;;1.85;0.85;;;22.30;49.90;;;;;;5027660;28;20664;-43
2022/01/28 13:20:59;;;;;;;1.70;0.82;;;22.20;49.80;;;;;;5029668;28;20184;-42
2022/01/28 13:23:36;;;;;;;1.15;0.85;;;22.20;49.80;;;;;;5027329;28;20226;-46
2022/01/28 13:26:11;;;;;;;1.10;0.90;;;22.20;49.80;;;;;;5029421;28;20302;-47
2022/01/28 13:28:42;;;;;;;2.55;0.95;;;22.20;49.90;;;;;;5029979;28;20262;-41
2022/01/28 13:31:12;;;;;;;2.28;1.10;;;22.20;49.80;;;;;;5027234;28;20208;-39
2022/01/28 13:33:43;;;;;;;1.63;0.82;;;22.20;49.90;;;;;;5028622;28;20201;-39
2022/01/28 13:36:13;;;;;;;1.58;1.00;;;22.20;49.90;;;;;;5027629;28;20216;-42
2022/01/28 13:38:44;;;;;;;1.48;0.80;;;22.10;50.00;;;;;;5027278;28;20196;-51
2022/01/28 13:41:28;;;;;;;1.23;0.70;;;22.10;49.90;;;;;;5029979;28;20283;-53
2022/01/28 13:44:00;;;;;;;2.80;1.02;;;22.10;50.50;;;;;;5028020;28;20252;-48
2022/01/28 13:46:38;;;;;;;1.35;0.90;;;22.10;50.00;;;;;;5027580;28;20223;-51
2022/01/28 13:49:17;;;;;;;2.10;1.15;;;22.00;49.90;;;;;;5030018;28;20825;-53
2022/01/28 13:51:47;;;;;;;1.88;0.90;;;22.00;49.90;;;;;;5026032;28;20653;-49
2022/01/28 13:54:20;;;;;;;1.80;1.05;;;22.00;50.00;;;;;;5030115;28;20200;-40
2022/01/28 13:57:01;;;;;;;2.28;0.93;;;22.00;50.00;;;;;;5016075;28;20230;-42
2022/01/28 13:59:34;;;;;;;1.75;1.10;;;22.00;50.00;;;;;;5025697;28;20204;-47
2022/01/28 14:02:06;;;;;;;1.00;0.80;;;21.90;50.00;;;;;;5029953;28;20262;-41
2022/01/28 14:04:43;;;;;;;2.45;1.48;;;21.90;50.00;;;;;;5028863;28;20204;-49
2022/01/28 14:07:15;;;;;;;1.38;0.93;;;21.90;50.00;;;;;;5024194;28;20251;-46
2022/01/28 14:09:55;;;;;;;1.25;0.88;;;21.90;50.00;;;;;;5012027;28;20549;-47
2022/01/28 14:12:42;;;;;;;1.50;1.00;;;21.90;50.00;;;;;;5027758;28;20227;-40
2022/01/28 14:15:27;;;;;;;1.52;1.10;;;21.90;50.10;;;;;;5027930;28;20259;-39